Time;durP1;ratioP1;P1;durP2;ratioP2;P2;SDS_P1;SDS_P2;PMS_P1;PMS_P2;Temp;Humidity;BMP_temperature;BMP_pressure;BME280_temperature;BME280_humidity;BME280_pressure;Samples;Min_cycle;Max_cycle;Signal;HPM_P1;HPM_P2
2021/03/16 00:00:28;;;;;;;12.52;6.82;;;;;;;1.38;100.00;95971.72;1032219;28;20537;-55
2021/03/16 00:00:59;;;;;;;13.18;6.60;;;;;;;1.40;100.00;95972.41;1024302;28;20068;-56
2021/03/16 00:01:29;;;;;;;14.18;7.50;;;;;;;1.36;100.00;95963.97;1028592;28;20045;-55
2021/03/16 00:02:00;;;;;;;14.23;7.85;;;;;;;1.31;100.00;95974.78;1031011;28;20109;-55
2021/03/16 00:02:30;;;;;;;12.75;7.70;;;;;;;1.33;100.00;95973.84;1035100;28;20019;-56
2021/03/16 00:03:01;;;;;;;12.65;7.20;;;;;;;1.35;100.00;95972.75;1039502;28;20018;-56
2021/03/16 00:03:32;;;;;;;12.73;7.03;;;;;;;1.34;100.00;95975.50;1031008;28;20089;-56
2021/03/16 00:04:03;;;;;;;12.07;7.10;;;;;;;1.36;100.00;95978.81;1027440;28;20015;-57
2021/03/16 00:04:34;;;;;;;15.05;8.48;;;;;;;1.38;100.00;95974.31;1027715;29;20094;-57
2021/03/16 00:05:06;;;;;;;15.35;7.60;;;;;;;1.36;100.00;95978.81;1032222;28;20070;-56
2021/03/16 00:05:36;;;;;;;11.73;7.90;;;;;;;1.35;100.00;95969.31;1031937;28;20019;-56
2021/03/16 00:06:07;;;;;;;12.50;7.53;;;;;;;1.12;100.00;95937.91;1027769;29;20122;-56
2021/03/16 00:06:38;;;;;;;12.27;7.80;;;;;;;1.33;100.00;95986.91;1031581;28;20015;-56
2021/03/16 00:07:09;;;;;;;11.90;7.28;;;;;;;1.37;100.00;95981.31;1031979;28;20019;-56
2021/03/16 00:07:39;;;;;;;11.45;7.88;;;;;;;1.37;100.00;95975.25;1024920;28;20090;-56
2021/03/16 00:08:10;;;;;;;13.13;7.38;;;;;;;1.34;100.00;95984.16;1024072;29;20019;-56
2021/03/16 00:08:41;;;;;;;15.05;8.52;;;;;;;1.38;100.00;95984.78;1016163;29;20103;-56
2021/03/16 00:09:12;;;;;;;12.45;7.90;;;;;;;1.37;100.00;95983.09;1028095;28;20025;-56
2021/03/16 00:09:42;;;;;;;14.10;8.32;;;;;;;1.39;100.00;95982.03;1028015;28;20077;-56
2021/03/16 00:10:13;;;;;;;12.52;7.85;;;;;;;1.41;100.00;95987.16;1024156;28;20159;-57
2021/03/16 00:10:44;;;;;;;12.43;7.90;;;;;;;1.41;100.00;95985.38;1036018;28;20024;-56
2021/03/16 00:11:14;;;;;;;13.98;8.25;;;;;;;1.41;100.00;95989.75;1028138;28;20026;-56
2021/03/16 00:11:45;;;;;;;15.18;7.15;;;;;;;1.40;100.00;95983.69;1027965;28;20019;-57
2021/03/16 00:12:16;;;;;;;12.10;7.32;;;;;;;1.41;100.00;95984.53;1031917;28;20465;-57
2021/03/16 00:12:47;;;;;;;13.82;7.70;;;;;;;1.39;100.00;95987.25;1023984;28;20482;-56
2021/03/16 00:13:17;;;;;;;13.27;7.72;;;;;;;1.42;100.00;95984.41;1024064;29;20019;-57
2021/03/16 00:13:48;;;;;;;12.93;8.23;;;;;;;1.41;100.00;95985.38;1019912;29;20350;-56
2021/03/16 00:14:19;;;;;;;15.13;7.95;;;;;;;1.42;100.00;95986.22;1028012;28;20453;-56
2021/03/16 00:14:50;;;;;;;12.25;7.97;;;;;;;1.41;100.00;95987.16;1028002;28;20033;-56
2021/03/16 00:15:20;;;;;;;13.82;8.60;;;;;;;1.40;100.00;95990.72;1028038;28;20038;-57
2021/03/16 00:15:51;;;;;;;12.85;8.02;;;;;;;1.42;100.00;95988.81;1032082;28;20654;-56
2021/03/16 00:16:23;;;;;;;13.75;8.82;;;;;;;1.44;100.00;95984.28;1027964;28;20023;-56
2021/03/16 00:16:54;;;;;;;13.88;8.40;;;;;;;1.41;100.00;95987.16;1027910;28;20416;-56
2021/03/16 00:17:24;;;;;;;14.27;8.02;;;;;;;1.44;100.00;95992.97;1024013;29;20030;-57
2021/03/16 00:17:55;;;;;;;15.23;8.00;;;;;;;1.40;100.00;95985.50;1020145;29;20027;-56
2021/03/16 00:18:26;;;;;;;13.30;7.97;;;;;;;1.45;100.00;95988.59;1027930;28;20117;-56
2021/03/16 00:18:57;;;;;;;13.88;8.07;;;;;;;1.43;100.00;95996.56;1023966;29;20473;-56
2021/03/16 00:19:28;;;;;;;12.25;8.00;;;;;;;1.37;100.00;95980.50;1027932;28;20110;-55
2021/03/16 00:19:58;;;;;;;11.23;7.82;;;;;;;1.44;100.00;95995.59;1024004;28;20026;-56
2021/03/16 00:20:30;;;;;;;13.73;7.43;;;;;;;1.44;100.00;95995.59;1019954;28;20042;-56
2021/03/16 00:21:00;;;;;;;12.90;7.68;;;;;;;1.43;100.00;95990.47;1024185;28;20027;-56
2021/03/16 00:21:31;;;;;;;13.05;8.38;;;;;;;1.34;100.00;95984.16;1027831;28;20505;-52
2021/03/16 00:22:02;;;;;;;15.63;8.65;;;;;;;1.42;100.00;95996.66;1032103;28;20195;-56
2021/03/16 00:22:33;;;;;;;13.38;8.68;;;;;;;1.40;100.00;95993.34;1027984;28;20392;-54
2021/03/16 00:23:04;;;;;;;15.95;8.60;;;;;;;1.43;100.00;95993.09;1028041;28;20022;-56
2021/03/16 00:23:34;;;;;;;12.15;7.90;;;;;;;1.42;100.00;95999.28;1035410;28;20014;-56
2021/03/16 00:24:06;;;;;;;12.85;8.30;;;;;;;1.44;100.00;95989.53;1027992;28;20500;-56
2021/03/16 00:24:37;;;;;;;12.45;8.13;;;;;;;1.44;100.00;96002.63;1027858;28;20562;-56
2021/03/16 00:25:08;;;;;;;13.40;7.95;;;;;;;1.45;100.00;96001.69;1020081;28;20016;-57
2021/03/16 00:25:39;;;;;;;12.88;8.10;;;;;;;1.48;100.00;96004.88;1027991;28;20037;-56
2021/03/16 00:26:10;;;;;;;14.88;7.90;;;;;;;1.44;100.00;95997.38;1032092;28;20022;-56
2021/03/16 00:26:41;;;;;;;12.60;8.50;;;;;;;1.48;100.00;96001.41;1027821;28;20019;-56
2021/03/16 00:27:11;;;;;;;13.30;9.25;;;;;;;1.48;100.00;95997.03;1024077;28;20071;-56
2021/03/16 00:27:42;;;;;;;13.88;8.85;;;;;;;1.48;100.00;96001.41;1032111;28;20030;-57
2021/03/16 00:28:14;;;;;;;14.90;8.25;;;;;;;1.46;100.00;95996.31;1024062;29;20020;-56
2021/03/16 00:28:44;;;;;;;12.32;8.55;;;;;;;1.48;100.00;96001.41;1028023;28;20412;-57
2021/03/16 00:29:15;;;;;;;12.90;8.18;;;;;;;1.46;100.00;95990.25;1031980;28;20018;-56
2021/03/16 00:29:46;;;;;;;10.05;7.07;;;;;;;1.48;100.00;96006.66;1028052;28;20437;-56
2021/03/16 00:30:17;;;;;;;13.65;8.45;;;;;;;1.48;100.00;95998.78;1028142;28;20035;-57
2021/03/16 00:30:48;;;;;;;13.07;7.78;;;;;;;1.44;100.00;96003.44;1027895;28;20429;-56
2021/03/16 00:31:18;;;;;;;13.30;8.43;;;;;;;1.46;100.00;96003.31;1032088;28;20010;-56
2021/03/16 00:31:49;;;;;;;12.43;7.75;;;;;;;1.45;100.00;96002.50;1028062;28;20011;-56
2021/03/16 00:32:20;;;;;;;14.77;8.60;;;;;;;1.46;100.00;95998.09;1028020;28;20465;-56
2021/03/16 00:32:51;;;;;;;12.63;8.00;;;;;;;1.42;100.00;95999.28;1023866;29;20481;-56
2021/03/16 00:33:21;;;;;;;14.00;8.48;;;;;;;1.49;100.00;96008.31;1031935;28;20464;-56
2021/03/16 00:33:52;;;;;;;16.65;9.18;;;;;;;1.49;100.00;96005.72;1023871;28;20016;-56
2021/03/16 00:34:23;;;;;;;15.10;9.57;;;;;;;1.50;100.00;96004.78;1028016;28;20027;-57
2021/03/16 00:34:54;;;;;;;12.60;8.05;;;;;;;1.49;100.00;96003.91;1023979;29;20019;-56
2021/03/16 00:35:24;;;;;;;15.13;8.73;;;;;;;1.50;100.00;96010.00;1028011;28;20015;-56
2021/03/16 00:35:55;;;;;;;13.80;8.25;;;;;;;1.48;100.00;96009.25;1024032;29;20027;-56
2021/03/16 00:36:26;;;;;;;12.52;7.57;;;;;;;1.48;100.00;96007.50;1020005;29;20023;-54
2021/03/16 00:36:57;;;;;;;13.43;7.97;;;;;;;1.51;100.00;96011.66;1023838;29;20473;-56
2021/03/16 00:37:28;;;;;;;11.15;7.85;;;;;;;1.52;100.00;96007.28;1023943;28;20110;-57
2021/03/16 00:37:59;;;;;;;14.85;8.05;;;;;;;1.52;100.00;96008.09;1016057;29;20021;-56
2021/03/16 00:38:30;;;;;;;15.60;8.38;;;;;;;1.49;100.00;95998.69;1016160;29;20046;-57
2021/03/16 00:39:00;;;;;;;15.07;7.57;;;;;;;1.51;100.00;96009.03;1027891;28;20507;-55
2021/03/16 00:39:32;;;;;;;12.57;7.85;;;;;;;1.51;100.00;96006.41;1023898;28;20484;-56
2021/03/16 00:40:04;;;;;;;15.77;8.25;;;;;;;1.53;100.00;96007.13;1027989;28;20019;-57
2021/03/16 00:40:35;;;;;;;14.75;8.10;;;;;;;1.53;100.00;96009.75;1031898;28;20033;-56
2021/03/16 00:41:05;;;;;;;13.77;8.40;;;;;;;1.54;100.00;96010.59;1023952;28;20094;-57
2021/03/16 00:41:36;;;;;;;13.55;7.00;;;;;;;1.53;100.00;96011.53;1031766;28;20045;-57
2021/03/16 00:42:07;;;;;;;13.00;7.20;;;;;;;1.49;100.00;96001.28;1027982;28;20022;-56
2021/03/16 00:42:38;;;;;;;13.45;8.38;;;;;;;1.54;100.00;96014.03;1031862;28;20396;-56
2021/03/16 00:43:09;;;;;;;14.15;8.63;;;;;;;1.54;100.00;96010.59;1035938;28;20503;-56
2021/03/16 00:43:40;;;;;;;12.10;7.47;;;;;;;1.52;100.00;96012.50;1031657;28;20480;-54
2021/03/16 00:44:10;;;;;;;14.65;8.25;;;;;;;1.56;100.00;96012.13;1023999;28;20030;-56
2021/03/16 00:44:41;;;;;;;13.43;7.32;;;;;;;1.56;100.00;96013.94;1027952;28;20055;-56
2021/03/16 00:45:13;;;;;;;11.98;8.13;;;;;;;1.56;100.00;96016.53;1024067;28;20015;-56
2021/03/16 00:45:44;;;;;;;17.27;8.52;;;;;;;1.52;100.00;96018.56;1023966;28;20469;-56
2021/03/16 00:46:15;;;;;;;14.05;8.68;;;;;;;1.52;100.00;96012.50;1024018;29;20031;-56
2021/03/16 00:46:45;;;;;;;14.70;8.32;;;;;;;1.53;100.00;96020.22;1027792;28;20543;-56
2021/03/16 00:47:16;;;;;;;13.70;7.80;;;;;;;1.53;100.00;96017.59;1023996;28;20061;-56
2021/03/16 00:47:47;;;;;;;14.77;9.18;;;;;;;1.53;100.00;96020.22;1023819;28;20504;-56
2021/03/16 00:48:18;;;;;;;12.52;8.32;;;;;;;1.56;100.00;96014.75;1031883;28;20026;-59
2021/03/16 00:48:49;;;;;;;12.23;7.60;;;;;;;1.56;100.00;96019.16;1023943;28;20477;-56
2021/03/16 00:49:20;;;;;;;11.68;7.60;;;;;;;1.55;100.00;96020.09;1027832;28;20015;-56
2021/03/16 00:49:51;;;;;;;12.68;8.02;;;;;;;1.56;100.00;96022.59;1027807;28;20027;-56
2021/03/16 00:50:21;;;;;;;16.25;7.63;;;;;;;1.56;100.00;96017.38;1024002;28;20161;-56
2021/03/16 00:50:52;;;;;;;14.10;8.15;;;;;;;1.54;100.00;96019.28;1036071;28;20115;-55
2021/03/16 00:51:23;;;;;;;17.70;8.23;;;;;;;1.52;100.00;96013.34;1036134;28;20025;-57
2021/03/16 00:51:54;;;;;;;13.52;8.30;;;;;;;1.58;100.00;96018.06;1023815;28;20106;-56
2021/03/16 00:52:25;;;;;;;16.20;7.72;;;;;;;1.61;100.00;96014.41;1031991;28;20037;-56
2021/03/16 00:52:56;;;;;;;16.00;7.93;;;;;;;1.57;100.00;96012.94;1035954;28;20069;-56
2021/03/16 00:53:26;;;;;;;13.73;8.23;;;;;;;1.58;100.00;96010.22;1031859;28;20015;-56
2021/03/16 00:53:57;;;;;;;13.65;8.02;;;;;;;1.58;100.00;96010.22;1031603;28;20112;-56
2021/03/16 00:54:28;;;;;;;14.52;8.23;;;;;;;1.58;100.00;96020.69;1027893;28;20040;-56
2021/03/16 00:54:59;;;;;;;11.50;7.03;;;;;;;1.57;100.00;96016.44;1031901;28;20117;-56
2021/03/16 00:55:30;;;;;;;14.75;8.65;;;;;;;1.58;100.00;96015.47;1031980;28;20026;-57
2021/03/16 00:56:01;;;;;;;13.02;7.95;;;;;;;1.58;100.00;96012.84;1023766;28;20023;-56
2021/03/16 00:56:32;;;;;;;13.82;7.65;;;;;;;1.56;100.00;96017.38;1031896;28;20452;-56
2021/03/16 00:57:03;;;;;;;15.95;8.82;;;;;;;1.56;100.00;96009.50;1023875;29;20058;-56
2021/03/16 00:57:34;;;;;;;13.85;7.68;;;;;;;1.57;100.00;96013.81;1023862;29;20473;-55
2021/03/16 00:58:05;;;;;;;12.55;7.65;;;;;;;1.57;100.00;96011.19;1027815;28;20014;-57
2021/03/16 00:58:36;;;;;;;13.25;7.80;;;;;;;1.58;100.00;96012.84;1027941;28;20434;-56
2021/03/16 00:59:07;;;;;;;13.27;7.75;;;;;;;1.60;100.00;96016.19;1027914;28;20014;-56
2021/03/16 00:59:37;;;;;;;13.55;8.18;;;;;;;1.60;100.00;96010.97;1031789;28;20109;-57
2021/03/16 01:00:10;;;;;;;13.38;7.55;;;;;;;1.59;100.00;96014.50;1023699;29;20030;-56
2021/03/16 01:00:41;;;;;;;12.25;7.07;;;;;;;1.58;100.00;96023.31;1019965;29;20366;-56
2021/03/16 01:01:12;;;;;;;14.75;7.75;;;;;;;1.60;100.00;96020.56;1027833;28;20021;-56
2021/03/16 01:01:43;;;;;;;15.35;8.13;;;;;;;1.61;100.00;96017.84;1023846;28;20026;-53
2021/03/16 01:02:14;;;;;;;16.05;8.40;;;;;;;1.56;100.00;96013.94;1027770;28;20477;-57
2021/03/16 01:02:44;;;;;;;14.57;8.25;;;;;;;1.54;100.00;96014.03;1023933;28;20023;-54
2021/03/16 01:03:15;;;;;;;18.35;9.10;;;;;;;1.60;100.00;96010.09;1031862;28;20026;-56
2021/03/16 01:03:46;;;;;;;12.93;7.75;;;;;;;1.60;100.00;96016.19;1019770;28;20024;-55
2021/03/16 01:04:17;;;;;;;11.18;7.47;;;;;;;1.60;100.00;96016.19;1031806;28;20010;-58
2021/03/16 01:04:48;;;;;;;15.55;8.38;;;;;;;1.58;100.00;96017.25;1019861;28;20023;-55
2021/03/16 01:05:18;;;;;;;17.15;8.10;;;;;;;1.59;100.00;96011.91;1031784;28;20026;-56
2021/03/16 01:05:50;;;;;;;12.95;7.70;;;;;;;1.61;100.00;96012.59;1031905;28;20038;-56
2021/03/16 01:06:20;;;;;;;13.30;7.85;;;;;;;1.60;100.00;96021.44;1027688;28;20026;-56
2021/03/16 01:06:51;;;;;;;13.57;8.90;;;;;;;1.61;100.00;96019.63;1031906;28;20103;-57
2021/03/16 01:07:22;;;;;;;14.50;7.70;;;;;;;1.58;100.00;96023.31;1031821;28;20030;-56
2021/03/16 01:07:53;;;;;;;12.55;7.90;;;;;;;1.61;100.00;96020.47;1031890;28;20025;-56
2021/03/16 01:08:24;;;;;;;15.60;7.97;;;;;;;1.61;100.00;96028.31;1027868;28;20097;-57
2021/03/16 01:08:55;;;;;;;16.05;7.70;;;;;;;1.59;100.00;96024.97;1020019;29;20389;-56
2021/03/16 01:09:26;;;;;;;15.02;7.60;;;;;;;1.57;100.00;96024.28;1031812;28;20014;-56
2021/03/16 01:09:56;;;;;;;13.02;8.02;;;;;;;1.59;100.00;96024.97;1031925;28;20018;-56
2021/03/16 01:10:29;;;;;;;13.73;8.05;;;;;;;1.60;100.00;96021.44;1023773;28;20027;-55
2021/03/16 01:11:00;;;;;;;13.10;7.15;;;;;;;1.62;100.00;96021.28;1023948;29;20027;-55
2021/03/16 01:11:31;;;;;;;11.30;7.45;;;;;;;1.61;100.00;96019.63;1031877;28;20491;-56
2021/03/16 01:12:02;;;;;;;11.15;7.45;;;;;;;1.61;100.00;96022.25;1031857;28;20018;-56
2021/03/16 01:12:34;;;;;;;16.25;8.18;;;;;;;1.61;100.00;96017.03;1023663;28;20052;-56
2021/03/16 01:13:05;;;;;;;16.73;8.60;;;;;;;1.61;100.00;96019.63;1027819;28;20029;-56
2021/03/16 01:13:36;;;;;;;13.85;8.10;;;;;;;1.60;100.00;96025.81;1027656;28;20033;-56
2021/03/16 01:14:08;;;;;;;14.27;8.30;;;;;;;1.60;100.00;96023.19;1027815;28;20022;-56
2021/03/16 01:14:39;;;;;;;13.38;8.02;;;;;;;1.57;100.00;96016.44;1035758;28;20491;-56
2021/03/16 01:15:11;;;;;;;15.65;8.50;;;;;;;1.57;100.00;96018.19;1019835;28;20051;-56
2021/03/16 01:15:41;;;;;;;13.77;8.43;;;;;;;1.59;100.00;96024.97;1023832;28;20026;-56
2021/03/16 01:16:12;;;;;;;14.13;7.88;;;;;;;1.43;100.00;95993.09;1023858;28;20146;-56
2021/03/16 01:16:43;;;;;;;16.63;8.15;;;;;;;1.60;100.00;96021.44;1023647;28;20040;-56
2021/03/16 01:17:14;;;;;;;15.20;8.27;;;;;;;1.58;100.00;96028.53;1027803;28;20018;-56
2021/03/16 01:17:44;;;;;;;15.40;8.80;;;;;;;1.60;100.00;96024.03;1023829;28;20481;-55
2021/03/16 01:18:15;;;;;;;14.15;8.95;;;;;;;1.58;100.00;96031.16;1027840;28;20532;-56
2021/03/16 01:18:46;;;;;;;13.75;8.15;;;;;;;1.57;100.00;96026.03;1023671;28;20027;-56
2021/03/16 01:19:17;;;;;;;15.93;8.52;;;;;;;1.60;100.00;96025.81;1027944;28;20444;-55
2021/03/16 01:19:47;;;;;;;17.30;9.20;;;;;;;1.57;100.00;96024.28;1027702;28;20022;-55
2021/03/16 01:20:20;;;;;;;14.77;8.10;;;;;;;1.58;100.00;96028.53;1031830;28;20030;-55
2021/03/16 01:20:51;;;;;;;13.27;8.00;;;;;;;1.58;100.00;96025.91;1027585;28;20109;-55
2021/03/16 01:21:22;;;;;;;12.93;8.02;;;;;;;1.59;100.00;96032.84;1027784;28;20027;-56
2021/03/16 01:21:53;;;;;;;15.30;8.05;;;;;;;1.60;100.00;96029.28;1035855;28;20032;-57
2021/03/16 01:22:23;;;;;;;14.02;7.85;;;;;;;1.59;100.00;96024.97;1027821;28;20526;-56
2021/03/16 01:22:54;;;;;;;13.80;7.93;;;;;;;1.59;100.00;96030.22;1031630;28;20026;-56
2021/03/16 01:23:25;;;;;;;10.93;7.45;;;;;;;1.52;100.00;96009.88;1031728;28;20029;-56
2021/03/16 01:23:56;;;;;;;12.30;7.03;;;;;;;1.58;100.00;96022.47;1027677;28;20027;-56
2021/03/16 01:24:27;;;;;;;13.77;7.20;;;;;;;1.60;100.00;96018.81;1027769;28;20564;-54
2021/03/16 01:24:58;;;;;;;12.93;8.30;;;;;;;1.58;100.00;96023.31;1023699;29;20019;-56
2021/03/16 01:25:29;;;;;;;13.95;8.60;;;;;;;1.58;100.00;96027.72;1023692;29;20035;-56
2021/03/16 01:26:00;;;;;;;12.73;7.75;;;;;;;1.58;100.00;96025.91;1027848;28;20025;-56
2021/03/16 01:26:31;;;;;;;13.07;7.30;;;;;;;1.59;100.00;96024.97;1027683;28;20023;-54
2021/03/16 01:27:01;;;;;;;16.05;8.73;;;;;;;1.59;100.00;96024.97;1027706;28;20113;-56
2021/03/16 01:27:32;;;;;;;11.57;7.63;;;;;;;1.58;100.00;96030.34;1031855;28;20046;-56
2021/03/16 01:28:03;;;;;;;11.05;6.75;;;;;;;1.58;100.00;96036.38;1027791;28;20129;-57
2021/03/16 01:28:34;;;;;;;15.23;7.75;;;;;;;1.60;100.00;96033.66;1031742;28;20018;-56
2021/03/16 01:29:05;;;;;;;13.18;7.07;;;;;;;1.57;100.00;96031.28;1023685;29;20047;-56
2021/03/16 01:29:35;;;;;;;15.18;7.93;;;;;;;1.57;100.00;96034.75;1031795;28;20018;-56
2021/03/16 01:30:07;;;;;;;16.95;7.95;;;;;;;1.59;100.00;96035.44;1023744;29;20051;-56
2021/03/16 01:30:39;;;;;;;14.30;8.07;;;;;;;1.61;100.00;96032.72;1027790;28;20054;-56
2021/03/16 01:31:10;;;;;;;16.23;7.63;;;;;;;1.61;100.00;96030.94;1031672;28;20065;-56
2021/03/16 01:31:40;;;;;;;12.85;7.88;;;;;;;1.58;100.00;96039.00;1027716;28;20058;-56
2021/03/16 01:32:11;;;;;;;11.43;7.53;;;;;;;1.60;100.00;96025.81;1027734;28;20035;-55
2021/03/16 01:32:42;;;;;;;14.98;7.50;;;;;;;1.61;100.00;96030.09;1031753;28;20026;-56
2021/03/16 01:33:13;;;;;;;16.60;7.90;;;;;;;1.62;100.00;96026.53;1035737;28;20026;-57
2021/03/16 01:33:43;;;;;;;14.82;8.13;;;;;;;1.62;100.00;96029.13;1031502;28;20384;-55
2021/03/16 01:34:14;;;;;;;15.48;8.45;;;;;;;1.62;100.00;96035.22;1035949;28;20030;-56
2021/03/16 01:34:45;;;;;;;13.20;7.43;;;;;;;1.59;100.00;96030.22;1027669;28;20416;-56
2021/03/16 01:35:16;;;;;;;12.77;7.20;;;;;;;1.59;100.00;96032.84;1031300;28;20030;-56
2021/03/16 01:35:47;;;;;;;13.65;7.68;;;;;;;1.60;100.00;96031.03;1031413;28;20023;-56
2021/03/16 01:36:17;;;;;;;14.00;7.00;;;;;;;1.58;100.00;96032.94;1031692;28;20022;-56
2021/03/16 01:36:48;;;;;;;17.58;7.38;;;;;;;1.60;100.00;96024.03;1023661;29;20488;-55
2021/03/16 01:37:19;;;;;;;15.18;7.85;;;;;;;1.60;100.00;96021.44;1031642;28;20022;-55
2021/03/16 01:37:53;;;;;;;14.00;7.97;;;;;;;1.59;100.00;96035.44;1027632;28;20030;-57
2021/03/16 01:38:24;;;;;;;11.98;7.20;;;;;;;1.59;100.00;96024.97;1023644;29;20039;-56
2021/03/16 01:38:55;;;;;;;16.40;8.00;;;;;;;1.61;100.00;96024.88;1031736;28;20026;-55
2021/03/16 01:39:25;;;;;;;17.20;7.78;;;;;;;1.60;100.00;96031.91;1023665;29;20489;-56
2021/03/16 01:39:56;;;;;;;12.90;7.45;;;;;;;1.61;100.00;96027.50;1023483;29;20385;-56
2021/03/16 01:40:32;;;;;;;12.02;7.38;;;;;;;1.62;100.00;96031.75;1027844;28;20022;-57
2021/03/16 01:41:03;;;;;;;14.95;7.82;;;;;;;1.61;100.00;96033.53;1027711;28;20034;-56
2021/03/16 01:41:34;;;;;;;18.85;8.18;;;;;;;1.59;100.00;96027.59;1027580;28;20054;-56
2021/03/16 01:42:05;;;;;;;13.23;7.68;;;;;;;1.59;100.00;96027.59;1031669;28;20053;-56
2021/03/16 01:42:35;;;;;;;16.90;8.40;;;;;;;1.58;100.00;96033.78;1027633;28;20065;-56
2021/03/16 01:43:08;;;;;;;13.50;7.75;;;;;;;1.58;100.00;96035.56;1019771;29;20110;-56
2021/03/16 01:43:38;;;;;;;14.23;8.35;;;;;;;1.55;100.00;96027.94;1027349;28;20508;-56
2021/03/16 01:44:09;;;;;;;15.18;8.40;;;;;;;1.53;100.00;96025.44;1031665;28;20026;-56
2021/03/16 01:44:43;;;;;;;12.55;7.63;;;;;;;1.56;100.00;96030.44;1027785;28;20030;-56
2021/03/16 01:45:15;;;;;;;12.77;7.88;;;;;;;1.57;100.00;96039.97;1023693;29;20457;-55
2021/03/16 01:45:47;;;;;;;16.25;7.53;;;;;;;1.58;100.00;96036.38;1031524;28;20385;-56
2021/03/16 01:46:18;;;;;;;15.27;7.68;;;;;;;1.57;100.00;96044.34;1031716;28;20022;-56
2021/03/16 01:46:49;;;;;;;15.32;8.55;;;;;;;1.58;100.00;96033.78;1019688;28;20086;-56
2021/03/16 01:47:21;;;;;;;16.98;7.68;;;;;;;1.58;100.00;96038.19;1031719;28;20076;-56
2021/03/16 01:47:52;;;;;;;12.00;7.65;;;;;;;1.60;100.00;96036.28;1027620;28;20369;-56
2021/03/16 01:48:26;;;;;;;14.73;8.20;;;;;;;1.60;100.00;96037.13;1023696;29;20058;-55
2021/03/16 01:48:56;;;;;;;13.63;7.88;;;;;;;1.59;100.00;96038.06;1027668;28;20063;-55
2021/03/16 01:49:27;;;;;;;12.05;7.72;;;;;;;1.60;100.00;96039.75;1027677;28;20031;-56
2021/03/16 01:49:58;;;;;;;13.75;7.60;;;;;;;1.57;100.00;96032.13;1023518;29;20019;-55
2021/03/16 01:50:29;;;;;;;12.57;6.63;;;;;;;1.60;100.00;96041.50;1027684;28;20034;-56
2021/03/16 01:51:01;;;;;;;19.35;7.47;;;;;;;1.61;100.00;96037.97;1027698;28;20049;-56
2021/03/16 01:51:32;;;;;;;14.80;7.50;;;;;;;1.58;100.00;96033.78;1031735;28;20018;-56
2021/03/16 01:52:03;;;;;;;14.45;7.13;;;;;;;1.58;100.00;96041.63;1031582;28;20053;-54
2021/03/16 01:52:34;;;;;;;14.55;7.97;;;;;;;1.58;100.00;96032.94;1031651;28;20028;-56
2021/03/16 01:53:04;;;;;;;20.50;7.25;;;;;;;1.61;100.00;96033.53;1023683;28;20392;-56
2021/03/16 01:53:36;;;;;;;15.38;7.10;;;;;;;1.60;100.00;96037.13;1031519;28;20018;-57
2021/03/16 01:54:07;;;;;;;15.23;7.93;;;;;;;1.55;100.00;96039.28;1027642;28;20500;-55
2021/03/16 01:54:40;;;;;;;13.82;7.38;;;;;;;1.57;100.00;96042.59;1031585;28;20094;-56
2021/03/16 01:55:11;;;;;;;14.88;7.55;;;;;;;1.58;100.00;96046.84;1027690;28;20465;-56
2021/03/16 01:55:42;;;;;;;13.38;7.05;;;;;;;1.61;100.00;96040.56;1019711;29;20024;-55
2021/03/16 01:56:13;;;;;;;12.55;7.38;;;;;;;1.62;100.00;96036.97;1027731;28;20369;-56
2021/03/16 01:56:44;;;;;;;11.77;7.10;;;;;;;1.61;100.00;96033.53;1027575;28;20035;-56
2021/03/16 01:57:14;;;;;;;12.13;7.32;;;;;;;1.62;100.00;96037.84;1031635;28;20102;-56
2021/03/16 01:57:45;;;;;;;13.05;7.95;;;;;;;1.63;100.00;96039.50;1035688;28;20032;-56
2021/03/16 01:58:16;;;;;;;14.07;7.45;;;;;;;1.60;100.00;96036.28;1027649;28;20476;-55
2021/03/16 01:58:47;;;;;;;15.20;7.88;;;;;;;1.59;100.00;96040.69;1031589;28;20057;-56
2021/03/16 01:59:18;;;;;;;11.48;6.80;;;;;;;1.60;100.00;96044.97;1023639;29;20030;-56
2021/03/16 01:59:49;;;;;;;13.15;7.63;;;;;;;1.59;100.00;96040.69;1019599;29;20024;-55
2021/03/16 02:00:20;;;;;;;14.57;7.43;;;;;;;1.55;100.00;96035.78;1031567;28;20072;-56
2021/03/16 02:00:51;;;;;;;15.13;6.97;;;;;;;1.58;100.00;96041.63;1031591;28;20105;-56
2021/03/16 02:01:23;;;;;;;17.98;8.02;;;;;;;1.60;100.00;96042.38;1027630;28;20017;-56
2021/03/16 02:01:54;;;;;;;17.02;7.63;;;;;;;1.57;100.00;96039.97;1027809;28;20023;-55
2021/03/16 02:02:25;;;;;;;12.93;7.43;;;;;;;1.58;100.00;96044.25;1027531;28;20134;-56
2021/03/16 02:02:55;;;;;;;14.88;7.53;;;;;;;1.50;100.00;96030.94;1027335;28;20089;-55
2021/03/16 02:03:27;;;;;;;18.23;8.95;;;;;;;1.58;100.00;96046.03;1027510;28;20051;-56
2021/03/16 02:03:57;;;;;;;12.65;6.85;;;;;;;1.60;100.00;96037.13;1023571;28;20394;-56
2021/03/16 02:04:28;;;;;;;15.52;7.78;;;;;;;1.63;100.00;96041.28;1019610;28;20039;-56
2021/03/16 02:04:59;;;;;;;14.52;8.15;;;;;;;1.61;100.00;96044.00;1027624;28;20089;-56
2021/03/16 02:05:29;;;;;;;11.95;6.78;;;;;;;1.59;100.00;96045.91;1031618;28;20547;-56
2021/03/16 02:06:01;;;;;;;15.63;7.65;;;;;;;1.62;100.00;96050.94;1027643;28;20014;-56
2021/03/16 02:06:35;;;;;;;15.95;7.65;;;;;;;1.60;100.00;96046.75;1027555;28;20011;-56
2021/03/16 02:07:18;;;;;;;16.55;7.38;;;;;;;1.58;100.00;96046.84;1023627;29;20019;-55
2021/03/16 02:08:00;;;;;;;14.40;6.43;;;;;;;1.53;100.00;96035.91;1034118;28;20113;-56
2021/03/16 02:08:31;;;;;;;15.82;7.18;;;;;;;1.58;100.00;96044.25;1031572;28;20113;-55
2021/03/16 02:09:06;;;;;;;13.65;6.75;;;;;;;1.59;100.00;96040.69;1027442;28;20126;-56
2021/03/16 02:09:43;;;;;;;16.17;7.25;;;;;;;1.56;100.00;96046.16;1035697;28;20025;-55
2021/03/16 02:10:33;;;;;;;20.30;7.75;;;;;;;1.56;100.00;96045.31;1030000;28;20018;-56
2021/03/16 02:11:15;;;;;;;11.73;6.38;;;;;;;1.56;100.00;96043.53;1027658;28;20044;-55
2021/03/16 02:11:49;;;;;;;18.02;7.65;;;;;;;1.55;100.00;96044.50;1027854;28;20564;-56
2021/03/16 02:12:32;;;;;;;13.07;6.47;;;;;;;1.57;100.00;96042.59;1027555;28;20077;-55
2021/03/16 02:13:06;;;;;;;16.25;7.43;;;;;;;1.55;100.00;96044.50;1031584;28;20026;-54
2021/03/16 02:13:48;;;;;;;14.13;7.13;;;;;;;1.54;100.00;96053.28;1030243;28;20021;-52
2021/03/16 02:14:38;;;;;;;17.75;7.05;;;;;;;1.55;100.00;96057.59;1027679;28;20022;-55
2021/03/16 02:15:20;;;;;;;18.33;7.43;;;;;;;1.56;100.00;96043.53;1027441;28;20077;-55
2021/03/16 02:15:56;;;;;;;12.43;6.07;;;;;;;1.56;100.00;96048.78;1031694;28;20085;-57
2021/03/16 02:16:40;;;;;;;12.88;7.15;;;;;;;1.56;100.00;96055.78;1031682;28;20010;-54
2021/03/16 02:17:14;;;;;;;14.57;6.80;;;;;;;1.53;100.00;96046.38;1031613;28;20050;-57
2021/03/16 02:17:49;;;;;;;13.35;6.72;;;;;;;1.55;100.00;96048.88;1027007;28;20061;-56
2021/03/16 02:18:22;;;;;;;17.25;7.18;;;;;;;1.54;100.00;96053.28;1023785;28;20019;-56
2021/03/16 02:18:54;;;;;;;14.50;8.13;;;;;;;1.56;100.00;96050.56;1021208;29;20039;-56
2021/03/16 02:19:30;;;;;;;17.40;6.35;;;;;;;1.55;100.00;96052.34;1028677;28;20046;-56
2021/03/16 02:20:06;;;;;;;15.38;6.95;;;;;;;1.56;100.00;96043.53;1028891;28;20065;-56
2021/03/16 02:20:46;;;;;;;13.00;7.15;;;;;;;1.55;100.00;96047.13;1031738;28;20530;-56
2021/03/16 02:21:19;;;;;;;13.90;7.03;;;;;;;1.54;100.00;96053.28;1031558;28;20480;-57
2021/03/16 02:21:50;;;;;;;16.70;6.93;;;;;;;1.57;100.00;96055.69;1032409;28;20026;-56
2021/03/16 02:22:21;;;;;;;15.57;8.30;;;;;;;1.57;100.00;96049.59;1027672;28;20507;-56
2021/03/16 02:22:52;;;;;;;14.25;6.97;;;;;;;1.57;100.00;96050.44;1027676;28;20053;-55
2021/03/16 02:23:34;;;;;;;16.85;7.32;;;;;;;1.52;100.00;96051.75;1031526;28;20512;-56
2021/03/16 02:24:05;;;;;;;14.98;7.57;;;;;;;1.53;100.00;96059.47;1027607;28;20167;-56
2021/03/16 02:24:40;;;;;;;13.10;7.10;;;;;;;1.47;100.00;96052.09;1019730;28;20027;-56
2021/03/16 02:25:34;;;;;;;16.35;8.25;;;;;;;1.54;100.00;96048.06;1031620;28;20015;-56
2021/03/16 02:26:17;;;;;;;14.38;7.15;;;;;;;1.56;100.00;96061.03;1035670;28;20029;-55
2021/03/16 02:26:51;;;;;;;14.45;7.20;;;;;;;1.54;100.00;96055.91;1027643;28;20129;-56
2021/03/16 02:27:24;;;;;;;13.88;6.53;;;;;;;1.54;100.00;96060.31;1023528;29;20023;-56
2021/03/16 02:28:07;;;;;;;11.82;6.88;;;;;;;1.54;100.00;96058.53;1027686;28;20022;-55